Calvert, AL

1:43 AM CDT on July 31, 2016 (GMT -0500)
APRSWXNET | | Change Station

Elev 49 ft 31.15 °N, 88.00 °W | Updated 21 minutes ago

Partly Cloudy
Partly Cloudy
77 °F
Feels Like 78 °F
N
0
Wind Variable Wind from South
Gusts 0.0 mph

Today
High -- | Low -- °F
--% Chance of Precip.
Yesterday
High -- | Low -- °F
Precip. -- in
Pressure 30.03 in
Visibility 10.0 miles
Clouds Few 2100 ft
Heat Index 78 °F
Dew Point 74 °F
Humidity 91%
Rainfall in
Snow Depth Not available.
6:08 AM 7:47 PM
Waning Crescent, 8% visible
METAR KMOB 310556Z AUTO 00000KT 10SM FEW021 26/24 A3004 RMK AO2 SLP169 T02560239 10289 20250 403440239 50003
Pressure 30.03 in
Visibility 10.0 miles
Clouds Few 2100 ft
Heat Index 78 °F
Dew Point 74 °F
Humidity 91%
Rainfall in
Snow Depth Not available.
6:08 AM 7:47 PM
Waning Crescent, 8% visible
METAR KMOB 310556Z AUTO 00000KT 10SM FEW021 26/24 A3004 RMK AO2 SLP169 T02560239 10289 20250 403440239 50003

10-Day Weather Forecast

Almanac

Astronomy

Jul. 31, 2016 Rise Set
Actual Time
Civil Twilight
Nautical Twilight
Astronomical Twilight
Moon
Length of Visible Light
Length of Day
Tomorrow will be .
, % of the Moon is Illuminated

Today's Extremes

State Highs State Lows

Community

WunderPhotos

Upload Photos

1,928,767 photos uploaded!

WunderBlog® & News

Nearby

Air Quality

  Air Quality AQ Index Pollutant
Not available.

Snow Depth

Station Depth Elevation

Earthquake Activity

City Distance Mag. Time & Date
Minimum magnitude displayed is 2.5.

Coastal Water Temperatures

Place Temperature

Stations

Nearby Weather Stations

Station Location Temp. Windchill Dew Point Humidity Wind Precip. Elev Updated Type
                   

Watches & Warnings

There are currently no watches in effect.